Fremont, Utah
Current Conditions -  °F | °C
As of 8:35 AM on Thursday 30 Oct 2014 (Local Time) from KHVE Reporting Station
Clear Clear  
Wind Chill: 32°   Ceiling: Unl
Heat Index: 32°   Visibility: 10mi
Dew Point: 12°   Wind: 0mph
Humidity: 44%   Direction: NA
Pressure: 30.36"   Gusts: NA
Location:  38.4257°N, 111.707°W
Report Text: KHVE 301435Z AUTO 00000KT 10SM CLR 00/M11 A3036 RMK AO2
Loading
Personal Weather Stations






























Interactive Weather Map
Tropical Storm Tracking
New forecast layout! Learn more

10-Day Weather Forecast

Advertisements
Track Severe Weather on mobile